Main page
Satellite images 15-day forecastsClimateMarine weather Cyclones Lightning AirportsFAQ Newsletter About
Weather : Europe Africa North America South America Asia Australia-Oceania Others
Languages Contact

Dortmund, Germany

latitude: 51-31N, longitude: 007-37E, elevation: 127 m


METAR: EDLW 020850Z VRB03KT 9999 SCT019 BKN038 15/12 Q1022 RMK ATIS L
short-TAF: out of date (36573 hours)
long-TAF: EDLW 020500Z 0206/0306 36004KT 9999 SCT025 TEMPO 0206/0210 BKN012 PROB30 TEMPO 0302/0306 1000 BR BKN002

Time: 11:05 (09:05 UTC)

Current weather observation

The report was made 15 minutes ago, at 08:50 UTC  
Wind 03 kt from variable directions
Temperature 15°C
Humidity 82%
Pressure 1022 hPa
Visibility 10 km or more
Scattered clouds at a height of 1900 ft
Broken clouds at a height of 3800 ft

Change units

Forecast

The report was made 3 hours and 38 minutes ago, at 05:27 UTC  
Forecast valid from 02 at 06 UTC to 03 at 06 UTC
Wind 04 kt from the North
Visibility 10 km or more
Scattered clouds at a height of 2500 ft
Temporary
from 02 at 06 UTC to 02 at 10 UTC
Broken clouds at a height of 1200 ft
Probability 30% :
Temporary
from 03 at 02 UTC to 03 at 06 UTC
Visibility 1000 m
Broken clouds at a height of 200 ft
mist
The information on this site is subject to a disclaimer
Weather : Europe Africa North America South America Asia Australia-Oceania Others
Satellite images 15-day forecastsClimateMarine weather Cyclones Lightning AirportsFAQ Languages Contact Newsletter About